sensor_id;sensor_type;location;lat;lon;timestamp;temperature;humidity
12060;DHT22;6091;51.432;6.880;2022-08-19T00:02:02;30.50;41.70
12060;DHT22;6091;51.432;6.880;2022-08-19T00:04:33;30.50;41.70
12060;DHT22;6091;51.432;6.880;2022-08-19T00:07:05;30.50;41.70
12060;DHT22;6091;51.432;6.880;2022-08-19T00:09:33;30.50;41.10
12060;DHT22;6091;51.432;6.880;2022-08-19T00:12:00;30.50;41.70
12060;DHT22;6091;51.432;6.880;2022-08-19T00:14:29;30.50;41.70
12060;DHT22;6091;51.432;6.880;2022-08-19T00:16:59;30.50;41.70
12060;DHT22;6091;51.432;6.880;2022-08-19T00:19:27;30.50;41.70
12060;DHT22;6091;51.432;6.880;2022-08-19T00:21:54;30.50;41.70
12060;DHT22;6091;51.432;6.880;2022-08-19T00:24:22;30.50;41.70
12060;DHT22;6091;51.432;6.880;2022-08-19T00:26:50;30.50;41.70
12060;DHT22;6091;51.432;6.880;2022-08-19T00:29:20;30.50;41.70
12060;DHT22;6091;51.432;6.880;2022-08-19T00:31:49;30.50;41.70
12060;DHT22;6091;51.432;6.880;2022-08-19T00:34:19;30.50;41.10
12060;DHT22;6091;51.432;6.880;2022-08-19T00:36:47;30.40;41.60
12060;DHT22;6091;51.432;6.880;2022-08-19T00:39:17;30.50;41.70
12060;DHT22;6091;51.432;6.880;2022-08-19T00:41:46;30.50;41.70
12060;DHT22;6091;51.432;6.880;2022-08-19T00:44:20;30.50;41.70
12060;DHT22;6091;51.432;6.880;2022-08-19T00:46:55;30.50;41.70
12060;DHT22;6091;51.432;6.880;2022-08-19T00:49:36;30.50;41.70
12060;DHT22;6091;51.432;6.880;2022-08-19T00:52:15;30.50;41.70
12060;DHT22;6091;51.432;6.880;2022-08-19T00:54:49;30.50;41.70
12060;DHT22;6091;51.432;6.880;2022-08-19T00:57:22;30.40;41.80
12060;DHT22;6091;51.432;6.880;2022-08-19T00:59:55;30.40;41.80
12060;DHT22;6091;51.432;6.880;2022-08-19T01:02:29;30.40;41.80
12060;DHT22;6091;51.432;6.880;2022-08-19T01:04:57;30.40;41.80
12060;DHT22;6091;51.432;6.880;2022-08-19T01:07:26;30.40;41.80
12060;DHT22;6091;51.432;6.880;2022-08-19T01:10:01;30.40;41.90
12060;DHT22;6091;51.432;6.880;2022-08-19T01:12:29;30.40;41.80
12060;DHT22;6091;51.432;6.880;2022-08-19T01:14:57;30.40;41.80
12060;DHT22;6091;51.432;6.880;2022-08-19T01:17:26;30.40;41.90
12060;DHT22;6091;51.432;6.880;2022-08-19T01:19:54;30.40;41.90
12060;DHT22;6091;51.432;6.880;2022-08-19T01:24:58;30.30;41.80
12060;DHT22;6091;51.432;6.880;2022-08-19T01:27:25;30.40;41.90
12060;DHT22;6091;51.432;6.880;2022-08-19T01:29:57;30.30;41.80
12060;DHT22;6091;51.432;6.880;2022-08-19T01:32:24;30.40;42.50
12060;DHT22;6091;51.432;6.880;2022-08-19T01:35:00;30.30;41.90
12060;DHT22;6091;51.432;6.880;2022-08-19T01:37:28;30.30;41.90
12060;DHT22;6091;51.432;6.880;2022-08-19T01:39:57;30.30;41.90
12060;DHT22;6091;51.432;6.880;2022-08-19T01:42:24;30.30;42.00
12060;DHT22;6091;51.432;6.880;2022-08-19T01:44:56;30.20;41.90
12060;DHT22;6091;51.432;6.880;2022-08-19T01:47:23;30.30;42.00
12060;DHT22;6091;51.432;6.880;2022-08-19T01:49:51;30.20;42.00
12060;DHT22;6091;51.432;6.880;2022-08-19T01:52:18;30.20;41.90
12060;DHT22;6091;51.432;6.880;2022-08-19T01:54:44;30.20;41.90
12060;DHT22;6091;51.432;6.880;2022-08-19T01:57:14;30.20;42.00
12060;DHT22;6091;51.432;6.880;2022-08-19T01:59:42;30.20;42.00
12060;DHT22;6091;51.432;6.880;2022-08-19T02:02:10;30.20;42.00
12060;DHT22;6091;51.432;6.880;2022-08-19T02:04:38;30.10;42.00
12060;DHT22;6091;51.432;6.880;2022-08-19T02:07:06;30.10;42.00
12060;DHT22;6091;51.432;6.880;2022-08-19T02:09:35;30.10;41.50
12060;DHT22;6091;51.432;6.880;2022-08-19T02:12:03;30.00;42.00
12060;DHT22;6091;51.432;6.880;2022-08-19T02:14:31;30.10;42.20
12060;DHT22;6091;51.432;6.880;2022-08-19T02:17:00;30.10;42.20
12060;DHT22;6091;51.432;6.880;2022-08-19T02:19:27;30.10;42.20
12060;DHT22;6091;51.432;6.880;2022-08-19T02:21:54;30.10;41.60
12060;DHT22;6091;51.432;6.880;2022-08-19T02:24:21;30.10;42.20
12060;DHT22;6091;51.432;6.880;2022-08-19T02:26:48;30.10;41.60
12060;DHT22;6091;51.432;6.880;2022-08-19T02:29:15;30.00;42.20
12060;DHT22;6091;51.432;6.880;2022-08-19T02:31:42;30.00;42.20
12060;DHT22;6091;51.432;6.880;2022-08-19T02:34:12;30.00;42.20
12060;DHT22;6091;51.432;6.880;2022-08-19T02:36:39;30.00;42.20
12060;DHT22;6091;51.432;6.880;2022-08-19T02:39:08;30.00;42.20
12060;DHT22;6091;51.432;6.880;2022-08-19T02:41:36;30.00;42.20
12060;DHT22;6091;51.432;6.880;2022-08-19T02:44:03;30.00;42.30
12060;DHT22;6091;51.432;6.880;2022-08-19T02:46:51;29.90;42.90
12060;DHT22;6091;51.432;6.880;2022-08-19T02:49:18;29.90;42.20
12060;DHT22;6091;51.432;6.880;2022-08-19T02:51:46;29.90;42.30
12060;DHT22;6091;51.432;6.880;2022-08-19T02:54:14;29.90;42.30
12060;DHT22;6091;51.432;6.880;2022-08-19T02:56:43;29.90;42.30
12060;DHT22;6091;51.432;6.880;2022-08-19T02:59:11;29.90;42.40
12060;DHT22;6091;51.432;6.880;2022-08-19T03:01:40;30.00;42.50
12060;DHT22;6091;51.432;6.880;2022-08-19T03:04:12;29.90;42.40
12060;DHT22;6091;51.432;6.880;2022-08-19T03:06:44;29.90;42.40
12060;DHT22;6091;51.432;6.880;2022-08-19T03:09:14;29.90;42.40
12060;DHT22;6091;51.432;6.880;2022-08-19T03:11:43;29.90;42.50
12060;DHT22;6091;51.432;6.880;2022-08-19T03:14:10;29.90;42.50
12060;DHT22;6091;51.432;6.880;2022-08-19T03:16:47;29.90;42.50
12060;DHT22;6091;51.432;6.880;2022-08-19T03:19:18;29.90;42.60
12060;DHT22;6091;51.432;6.880;2022-08-19T03:21:46;29.90;42.50
12060;DHT22;6091;51.432;6.880;2022-08-19T03:24:14;29.90;42.50
12060;DHT22;6091;51.432;6.880;2022-08-19T03:26:46;29.90;42.50
12060;DHT22;6091;51.432;6.880;2022-08-19T03:29:19;29.90;42.50
12060;DHT22;6091;51.432;6.880;2022-08-19T03:31:59;29.90;42.50
12060;DHT22;6091;51.432;6.880;2022-08-19T03:34:33;29.90;42.50
12060;DHT22;6091;51.432;6.880;2022-08-19T03:37:08;29.80;42.50
12060;DHT22;6091;51.432;6.880;2022-08-19T03:39:39;29.90;42.60
12060;DHT22;6091;51.432;6.880;2022-08-19T03:42:09;29.80;42.50
12060;DHT22;6091;51.432;6.880;2022-08-19T03:44:56;29.90;42.60
12060;DHT22;6091;51.432;6.880;2022-08-19T03:47:24;29.90;42.60
12060;DHT22;6091;51.432;6.880;2022-08-19T03:49:51;29.90;42.60
12060;DHT22;6091;51.432;6.880;2022-08-19T03:52:18;29.90;42.60
12060;DHT22;6091;51.432;6.880;2022-08-19T03:54:45;29.90;42.60
12060;DHT22;6091;51.432;6.880;2022-08-19T03:57:12;29.90;42.60
12060;DHT22;6091;51.432;6.880;2022-08-19T03:59:39;29.90;42.60
12060;DHT22;6091;51.432;6.880;2022-08-19T04:02:09;29.90;42.00
12060;DHT22;6091;51.432;6.880;2022-08-19T04:04:39;29.90;42.00
12060;DHT22;6091;51.432;6.880;2022-08-19T04:07:11;29.80;42.50
12060;DHT22;6091;51.432;6.880;2022-08-19T04:09:42;29.90;42.60
12060;DHT22;6091;51.432;6.880;2022-08-19T04:12:09;29.90;42.50
12060;DHT22;6091;51.432;6.880;2022-08-19T04:14:36;29.80;41.90
12060;DHT22;6091;51.432;6.880;2022-08-19T04:17:03;29.80;42.50
12060;DHT22;6091;51.432;6.880;2022-08-19T04:19:35;29.80;43.10
12060;DHT22;6091;51.432;6.880;2022-08-19T04:22:03;29.80;42.50
12060;DHT22;6091;51.432;6.880;2022-08-19T04:24:31;29.80;42.50
12060;DHT22;6091;51.432;6.880;2022-08-19T04:27:00;29.80;42.60
12060;DHT22;6091;51.432;6.880;2022-08-19T04:29:28;29.80;42.60
12060;DHT22;6091;51.432;6.880;2022-08-19T04:31:57;29.80;42.60
12060;DHT22;6091;51.432;6.880;2022-08-19T04:34:34;29.80;42.60
12060;DHT22;6091;51.432;6.880;2022-08-19T04:37:21;29.80;42.50
12060;DHT22;6091;51.432;6.880;2022-08-19T04:39:49;29.90;42.60
12060;DHT22;6091;51.432;6.880;2022-08-19T04:42:35;29.90;42.60
12060;DHT22;6091;51.432;6.880;2022-08-19T04:45:13;29.80;42.50
12060;DHT22;6091;51.432;6.880;2022-08-19T04:47:44;29.80;42.50
12060;DHT22;6091;51.432;6.880;2022-08-19T04:50:27;29.80;42.50
12060;DHT22;6091;51.432;6.880;2022-08-19T04:52:54;29.80;42.50
12060;DHT22;6091;51.432;6.880;2022-08-19T04:55:23;29.80;42.50
12060;DHT22;6091;51.432;6.880;2022-08-19T04:57:55;29.80;42.50
12060;DHT22;6091;51.432;6.880;2022-08-19T05:00:22;29.80;42.60
12060;DHT22;6091;51.432;6.880;2022-08-19T05:02:49;29.80;42.60
12060;DHT22;6091;51.432;6.880;2022-08-19T05:05:17;29.80;42.50
12060;DHT22;6091;51.432;6.880;2022-08-19T05:07:44;29.80;42.50
12060;DHT22;6091;51.432;6.880;2022-08-19T05:10:11;29.80;42.60
12060;DHT22;6091;51.432;6.880;2022-08-19T05:12:39;29.80;42.00
12060;DHT22;6091;51.432;6.880;2022-08-19T05:15:06;29.80;42.60
12060;DHT22;6091;51.432;6.880;2022-08-19T05:17:37;29.70;42.50
12060;DHT22;6091;51.432;6.880;2022-08-19T05:20:07;29.70;42.00
12060;DHT22;6091;51.432;6.880;2022-08-19T05:22:53;29.70;42.00
12060;DHT22;6091;51.432;6.880;2022-08-19T05:25:21;29.70;42.50
12060;DHT22;6091;51.432;6.880;2022-08-19T05:27:49;29.70;42.60
12060;DHT22;6091;51.432;6.880;2022-08-19T05:30:17;29.70;42.60
12060;DHT22;6091;51.432;6.880;2022-08-19T05:32:59;29.70;42.60
12060;DHT22;6091;51.432;6.880;2022-08-19T05:35:26;29.80;42.10
12060;DHT22;6091;51.432;6.880;2022-08-19T05:38:00;29.70;42.70
12060;DHT22;6091;51.432;6.880;2022-08-19T05:40:27;29.80;42.70
12060;DHT22;6091;51.432;6.880;2022-08-19T05:42:55;29.70;42.90
12060;DHT22;6091;51.432;6.880;2022-08-19T05:45:22;29.80;42.30
12060;DHT22;6091;51.432;6.880;2022-08-19T05:47:49;29.70;42.90
12060;DHT22;6091;51.432;6.880;2022-08-19T05:50:16;29.80;43.00
12060;DHT22;6091;51.432;6.880;2022-08-19T05:52:44;29.70;43.00
12060;DHT22;6091;51.432;6.880;2022-08-19T05:55:18;29.70;43.10
12060;DHT22;6091;51.432;6.880;2022-08-19T05:57:47;29.80;43.10
12060;DHT22;6091;51.432;6.880;2022-08-19T06:00:14;29.80;43.40
12060;DHT22;6091;51.432;6.880;2022-08-19T06:02:47;29.80;42.60
12060;DHT22;6091;51.432;6.880;2022-08-19T06:05:14;29.80;43.10
12060;DHT22;6091;51.432;6.880;2022-08-19T06:07:41;29.90;43.20
12060;DHT22;6091;51.432;6.880;2022-08-19T06:10:10;29.90;43.10
12060;DHT22;6091;51.432;6.880;2022-08-19T06:12:38;29.80;43.00
12060;DHT22;6091;51.432;6.880;2022-08-19T06:15:10;29.80;43.10
12060;DHT22;6091;51.432;6.880;2022-08-19T06:17:40;29.80;43.30
12060;DHT22;6091;51.432;6.880;2022-08-19T06:20:11;29.80;43.30
12060;DHT22;6091;51.432;6.880;2022-08-19T06:22:45;29.80;43.20
12060;DHT22;6091;51.432;6.880;2022-08-19T06:25:15;29.80;43.40
12060;DHT22;6091;51.432;6.880;2022-08-19T06:27:44;29.80;43.30
12060;DHT22;6091;51.432;6.880;2022-08-19T06:30:31;29.70;43.20
12060;DHT22;6091;51.432;6.880;2022-08-19T06:32:59;29.70;43.80
12060;DHT22;6091;51.432;6.880;2022-08-19T06:35:26;29.60;43.40
12060;DHT22;6091;51.432;6.880;2022-08-19T06:37:53;29.60;43.60
12060;DHT22;6091;51.432;6.880;2022-08-19T06:40:21;29.60;43.60
12060;DHT22;6091;51.432;6.880;2022-08-19T06:42:48;29.70;43.70
12060;DHT22;6091;51.432;6.880;2022-08-19T06:45:24;29.70;44.40
12060;DHT22;6091;51.432;6.880;2022-08-19T06:48:01;29.70;43.70
12060;DHT22;6091;51.432;6.880;2022-08-19T06:50:29;29.80;43.10
12060;DHT22;6091;51.432;6.880;2022-08-19T06:52:56;29.80;43.10
12060;DHT22;6091;51.432;6.880;2022-08-19T06:55:26;29.80;43.30
12060;DHT22;6091;51.432;6.880;2022-08-19T06:58:02;29.70;43.70
12060;DHT22;6091;51.432;6.880;2022-08-19T07:00:30;29.80;43.80
12060;DHT22;6091;51.432;6.880;2022-08-19T07:03:02;29.80;44.00
12060;DHT22;6091;51.432;6.880;2022-08-19T07:05:39;29.80;43.80
12060;DHT22;6091;51.432;6.880;2022-08-19T07:08:11;29.90;43.90
12060;DHT22;6091;51.432;6.880;2022-08-19T07:10:43;29.90;43.80
12060;DHT22;6091;51.432;6.880;2022-08-19T07:13:11;29.90;43.80
12060;DHT22;6091;51.432;6.880;2022-08-19T07:15:38;29.90;43.80
12060;DHT22;6091;51.432;6.880;2022-08-19T07:18:05;30.00;43.80
12060;DHT22;6091;51.432;6.880;2022-08-19T07:20:37;30.00;43.80
12060;DHT22;6091;51.432;6.880;2022-08-19T07:23:07;30.00;43.70
12060;DHT22;6091;51.432;6.880;2022-08-19T07:25:38;30.00;43.70
12060;DHT22;6091;51.432;6.880;2022-08-19T07:28:06;30.00;43.20
12060;DHT22;6091;51.432;6.880;2022-08-19T07:30:49;29.90;43.90
12060;DHT22;6091;51.432;6.880;2022-08-19T07:33:18;29.90;43.80
12060;DHT22;6091;51.432;6.880;2022-08-19T07:35:45;29.90;44.00
12060;DHT22;6091;51.432;6.880;2022-08-19T07:38:12;29.70;43.30
12060;DHT22;6091;51.432;6.880;2022-08-19T07:40:39;29.90;44.20
12060;DHT22;6091;51.432;6.880;2022-08-19T07:43:07;29.90;44.20
12060;DHT22;6091;51.432;6.880;2022-08-19T07:45:39;29.90;44.20
12060;DHT22;6091;51.432;6.880;2022-08-19T07:48:06;29.90;43.80
12060;DHT22;6091;51.432;6.880;2022-08-19T07:50:33;29.90;44.30
12060;DHT22;6091;51.432;6.880;2022-08-19T07:53:01;29.90;44.30
12060;DHT22;6091;51.432;6.880;2022-08-19T07:55:28;29.90;44.70
12060;DHT22;6091;51.432;6.880;2022-08-19T07:58:09;30.00;44.90
12060;DHT22;6091;51.432;6.880;2022-08-19T08:00:37;30.00;43.60
12060;DHT22;6091;51.432;6.880;2022-08-19T08:03:04;30.10;43.60
12060;DHT22;6091;51.432;6.880;2022-08-19T08:05:32;30.00;43.60
12060;DHT22;6091;51.432;6.880;2022-08-19T08:08:17;30.10;43.60
12060;DHT22;6091;51.432;6.880;2022-08-19T08:11:15;30.00;44.20
12060;DHT22;6091;51.432;6.880;2022-08-19T08:13:46;30.10;44.10
12060;DHT22;6091;51.432;6.880;2022-08-19T08:16:27;30.00;43.40
12060;DHT22;6091;51.432;6.880;2022-08-19T08:18:57;30.10;43.40
12060;DHT22;6091;51.432;6.880;2022-08-19T08:21:24;30.10;43.40
12060;DHT22;6091;51.432;6.880;2022-08-19T08:23:51;30.10;43.30
12060;DHT22;6091;51.432;6.880;2022-08-19T08:26:22;30.10;43.40
12060;DHT22;6091;51.432;6.880;2022-08-19T08:28:50;30.00;43.30
12060;DHT22;6091;51.432;6.880;2022-08-19T08:31:18;30.10;44.00
12060;DHT22;6091;51.432;6.880;2022-08-19T08:33:47;30.20;43.40
12060;DHT22;6091;51.432;6.880;2022-08-19T08:38:44;30.10;43.40
12060;DHT22;6091;51.432;6.880;2022-08-19T08:44:21;30.20;43.40
12060;DHT22;6091;51.432;6.880;2022-08-19T08:47:01;30.20;44.30
12060;DHT22;6091;51.432;6.880;2022-08-19T08:49:51;30.30;43.30
12060;DHT22;6091;51.432;6.880;2022-08-19T08:52:36;30.30;43.20
12060;DHT22;6091;51.432;6.880;2022-08-19T08:55:24;30.20;43.60
12060;DHT22;6091;51.432;6.880;2022-08-19T08:58:31;30.20;43.60
12060;DHT22;6091;51.432;6.880;2022-08-19T09:01:11;30.30;43.00
12060;DHT22;6091;51.432;6.880;2022-08-19T09:03:43;30.20;43.60
12060;DHT22;6091;51.432;6.880;2022-08-19T09:06:19;30.30;43.90
12060;DHT22;6091;51.432;6.880;2022-08-19T09:09:14;30.20;42.90
12060;DHT22;6091;51.432;6.880;2022-08-19T09:14:47;30.10;43.20
12060;DHT22;6091;51.432;6.880;2022-08-19T09:17:20;30.20;43.30
12060;DHT22;6091;51.432;6.880;2022-08-19T09:25:18;30.30;43.10
12060;DHT22;6091;51.432;6.880;2022-08-19T09:27:54;30.20;43.70
12060;DHT22;6091;51.432;6.880;2022-08-19T09:30:32;30.30;43.20
12060;DHT22;6091;51.432;6.880;2022-08-19T09:35:36;30.30;43.20
12060;DHT22;6091;51.432;6.880;2022-08-19T09:38:22;30.40;43.20
12060;DHT22;6091;51.432;6.880;2022-08-19T09:40:51;30.50;43.20
12060;DHT22;6091;51.432;6.880;2022-08-19T09:43:19;30.40;43.10
12060;DHT22;6091;51.432;6.880;2022-08-19T09:46:07;30.50;44.80
12060;DHT22;6091;51.432;6.880;2022-08-19T09:51:18;30.50;42.80
12060;DHT22;6091;51.432;6.880;2022-08-19T09:53:53;30.60;42.60
12060;DHT22;6091;51.432;6.880;2022-08-19T09:56:22;30.60;43.10
12060;DHT22;6091;51.432;6.880;2022-08-19T09:58:52;30.60;42.60
12060;DHT22;6091;51.432;6.880;2022-08-19T10:01:26;30.50;43.60
12060;DHT22;6091;51.432;6.880;2022-08-19T10:03:57;30.60;42.60
12060;DHT22;6091;51.432;6.880;2022-08-19T10:06:27;30.60;43.40
12060;DHT22;6091;51.432;6.880;2022-08-19T10:11:43;30.60;42.70
12060;DHT22;6091;51.432;6.880;2022-08-19T10:14:20;30.50;43.10
12060;DHT22;6091;51.432;6.880;2022-08-19T10:16:50;30.60;43.30
12060;DHT22;6091;51.432;6.880;2022-08-19T10:19:19;30.60;43.10
12060;DHT22;6091;51.432;6.880;2022-08-19T10:21:52;30.60;43.00
12060;DHT22;6091;51.432;6.880;2022-08-19T10:24:26;30.60;43.10
12060;DHT22;6091;51.432;6.880;2022-08-19T10:26:54;30.70;42.90
12060;DHT22;6091;51.432;6.880;2022-08-19T10:29:26;30.70;42.90
12060;DHT22;6091;51.432;6.880;2022-08-19T10:32:06;30.70;42.90
12060;DHT22;6091;51.432;6.880;2022-08-19T10:34:38;30.70;42.30
12060;DHT22;6091;51.432;6.880;2022-08-19T10:37:15;30.70;42.20
12060;DHT22;6091;51.432;6.880;2022-08-19T10:39:59;30.60;42.90
12060;DHT22;6091;51.432;6.880;2022-08-19T10:42:28;30.80;42.80
12060;DHT22;6091;51.432;6.880;2022-08-19T10:44:57;30.80;43.00
12060;DHT22;6091;51.432;6.880;2022-08-19T10:47:26;30.80;42.50
12060;DHT22;6091;51.432;6.880;2022-08-19T10:49:57;30.80;42.00
12060;DHT22;6091;51.432;6.880;2022-08-19T10:52:46;30.80;42.50
12060;DHT22;6091;51.432;6.880;2022-08-19T10:55:21;30.80;42.40
12060;DHT22;6091;51.432;6.880;2022-08-19T10:58:20;30.90;42.30
12060;DHT22;6091;51.432;6.880;2022-08-19T11:00:56;30.90;41.90
12060;DHT22;6091;51.432;6.880;2022-08-19T11:03:26;30.90;41.90
12060;DHT22;6091;51.432;6.880;2022-08-19T11:06:02;30.90;42.40
12060;DHT22;6091;51.432;6.880;2022-08-19T11:08:31;31.00;41.80
12060;DHT22;6091;51.432;6.880;2022-08-19T11:11:01;31.00;41.70
12060;DHT22;6091;51.432;6.880;2022-08-19T11:13:35;31.00;41.60
12060;DHT22;6091;51.432;6.880;2022-08-19T11:16:10;31.10;41.80
12060;DHT22;6091;51.432;6.880;2022-08-19T11:18:46;31.30;42.10
12060;DHT22;6091;51.432;6.880;2022-08-19T11:23:51;31.60;42.20
12060;DHT22;6091;51.432;6.880;2022-08-19T11:26:22;31.80;42.20
12060;DHT22;6091;51.432;6.880;2022-08-19T11:28:51;32.00;42.20
12060;DHT22;6091;51.432;6.880;2022-08-19T11:31:23;32.10;41.80
12060;DHT22;6091;51.432;6.880;2022-08-19T11:33:59;32.30;41.80
12060;DHT22;6091;51.432;6.880;2022-08-19T11:36:28;32.40;41.70
12060;DHT22;6091;51.432;6.880;2022-08-19T11:38:56;32.60;41.50
12060;DHT22;6091;51.432;6.880;2022-08-19T11:41:23;32.60;41.40
12060;DHT22;6091;51.432;6.880;2022-08-19T11:43:54;32.80;41.00
12060;DHT22;6091;51.432;6.880;2022-08-19T11:46:27;32.80;40.30
12060;DHT22;6091;51.432;6.880;2022-08-19T11:48:59;32.80;40.60
12060;DHT22;6091;51.432;6.880;2022-08-19T11:51:30;32.90;40.10
12060;DHT22;6091;51.432;6.880;2022-08-19T11:53:59;32.90;40.20
12060;DHT22;6091;51.432;6.880;2022-08-19T11:56:27;33.10;40.50
12060;DHT22;6091;51.432;6.880;2022-08-19T11:58:56;33.10;40.20
12060;DHT22;6091;51.432;6.880;2022-08-19T12:01:25;33.10;40.10
12060;DHT22;6091;51.432;6.880;2022-08-19T12:03:55;33.20;40.20
12060;DHT22;6091;51.432;6.880;2022-08-19T12:06:29;33.30;40.10
12060;DHT22;6091;51.432;6.880;2022-08-19T12:09:01;33.40;40.50
12060;DHT22;6091;51.432;6.880;2022-08-19T12:11:32;33.50;40.00
12060;DHT22;6091;51.432;6.880;2022-08-19T12:16:32;33.90;40.20
12060;DHT22;6091;51.432;6.880;2022-08-19T12:19:00;33.80;39.50
12060;DHT22;6091;51.432;6.880;2022-08-19T12:21:33;33.90;39.70
12060;DHT22;6091;51.432;6.880;2022-08-19T12:24:02;34.00;39.30
12060;DHT22;6091;51.432;6.880;2022-08-19T12:26:32;34.00;38.90
12060;DHT22;6091;51.432;6.880;2022-08-19T12:29:18;34.00;38.80
12060;DHT22;6091;51.432;6.880;2022-08-19T12:31:50;34.10;38.40
12060;DHT22;6091;51.432;6.880;2022-08-19T12:34:17;34.10;38.60
12060;DHT22;6091;51.432;6.880;2022-08-19T12:36:47;34.10;38.50
12060;DHT22;6091;51.432;6.880;2022-08-19T12:39:16;34.10;39.00
12060;DHT22;6091;51.432;6.880;2022-08-19T12:41:43;34.30;38.40
12060;DHT22;6091;51.432;6.880;2022-08-19T12:44:19;34.30;38.20
12060;DHT22;6091;51.432;6.880;2022-08-19T12:46:56;34.40;38.30
12060;DHT22;6091;51.432;6.880;2022-08-19T12:49:23;34.50;38.00
12060;DHT22;6091;51.432;6.880;2022-08-19T12:52:11;34.50;37.70
12060;DHT22;6091;51.432;6.880;2022-08-19T12:54:48;34.50;37.50
12060;DHT22;6091;51.432;6.880;2022-08-19T12:57:27;34.50;37.70
12060;DHT22;6091;51.432;6.880;2022-08-19T13:00:07;34.60;38.00
12060;DHT22;6091;51.432;6.880;2022-08-19T13:02:39;34.70;38.10
12060;DHT22;6091;51.432;6.880;2022-08-19T13:05:21;34.70;38.20
12060;DHT22;6091;51.432;6.880;2022-08-19T13:07:58;34.90;38.00
12060;DHT22;6091;51.432;6.880;2022-08-19T13:10:30;35.00;37.50
12060;DHT22;6091;51.432;6.880;2022-08-19T13:13:04;35.10;37.50
12060;DHT22;6091;51.432;6.880;2022-08-19T13:15:34;35.10;37.00
12060;DHT22;6091;51.432;6.880;2022-08-19T13:18:08;35.10;37.50
12060;DHT22;6091;51.432;6.880;2022-08-19T13:20:38;35.10;36.90
12060;DHT22;6091;51.432;6.880;2022-08-19T13:23:10;35.10;36.70
12060;DHT22;6091;51.432;6.880;2022-08-19T13:25:37;35.00;36.10
12060;DHT22;6091;51.432;6.880;2022-08-19T13:30:33;34.90;36.00
12060;DHT22;6091;51.432;6.880;2022-08-19T13:33:19;34.80;36.00
12060;DHT22;6091;51.432;6.880;2022-08-19T13:35:47;35.10;36.30
12060;DHT22;6091;51.432;6.880;2022-08-19T13:38:23;34.70;36.00
12060;DHT22;6091;51.432;6.880;2022-08-19T13:40:54;34.60;35.60
12060;DHT22;6091;51.432;6.880;2022-08-19T13:43:26;34.40;34.90
12060;DHT22;6091;51.432;6.880;2022-08-19T13:45:56;34.30;35.20
12060;DHT22;6091;51.432;6.880;2022-08-19T13:48:24;34.30;35.40
12060;DHT22;6091;51.432;6.880;2022-08-19T13:50:53;34.20;35.20
12060;DHT22;6091;51.432;6.880;2022-08-19T13:53:21;34.00;34.90
12060;DHT22;6091;51.432;6.880;2022-08-19T13:55:48;34.00;35.40
12060;DHT22;6091;51.432;6.880;2022-08-19T13:58:17;33.90;35.00
12060;DHT22;6091;51.432;6.880;2022-08-19T14:00:46;33.50;34.80
12060;DHT22;6091;51.432;6.880;2022-08-19T14:03:14;33.80;35.50
12060;DHT22;6091;51.432;6.880;2022-08-19T14:05:42;33.80;35.10
12060;DHT22;6091;51.432;6.880;2022-08-19T14:08:09;33.70;35.40
12060;DHT22;6091;51.432;6.880;2022-08-19T14:10:36;33.50;35.00
12060;DHT22;6091;51.432;6.880;2022-08-19T14:13:03;33.60;35.60
12060;DHT22;6091;51.432;6.880;2022-08-19T14:15:31;33.50;35.00
12060;DHT22;6091;51.432;6.880;2022-08-19T14:17:58;33.40;35.00
12060;DHT22;6091;51.432;6.880;2022-08-19T14:20:26;33.50;35.50
12060;DHT22;6091;51.432;6.880;2022-08-19T14:22:54;33.40;34.90
12060;DHT22;6091;51.432;6.880;2022-08-19T14:25:27;33.40;34.80
12060;DHT22;6091;51.432;6.880;2022-08-19T14:27:57;33.30;34.80
12060;DHT22;6091;51.432;6.880;2022-08-19T14:30:30;33.30;34.90
12060;DHT22;6091;51.432;6.880;2022-08-19T14:33:00;33.30;35.20
12060;DHT22;6091;51.432;6.880;2022-08-19T14:35:30;33.20;35.20
12060;DHT22;6091;51.432;6.880;2022-08-19T14:38:02;33.20;34.80
12060;DHT22;6091;51.432;6.880;2022-08-19T14:40:31;33.10;35.00
12060;DHT22;6091;51.432;6.880;2022-08-19T14:43:02;33.20;35.40
12060;DHT22;6091;51.432;6.880;2022-08-19T14:45:35;33.10;34.90
12060;DHT22;6091;51.432;6.880;2022-08-19T14:48:08;33.10;35.00
12060;DHT22;6091;51.432;6.880;2022-08-19T14:50:45;33.10;35.00
12060;DHT22;6091;51.432;6.880;2022-08-19T14:53:12;33.10;35.50
12060;DHT22;6091;51.432;6.880;2022-08-19T14:55:43;33.00;35.00
12060;DHT22;6091;51.432;6.880;2022-08-19T14:58:12;33.00;35.40
12060;DHT22;6091;51.432;6.880;2022-08-19T15:00:58;33.10;35.10
12060;DHT22;6091;51.432;6.880;2022-08-19T15:05:54;33.10;35.20
12060;DHT22;6091;51.432;6.880;2022-08-19T15:08:24;33.00;36.30
12060;DHT22;6091;51.432;6.880;2022-08-19T15:10:53;33.10;36.00
12060;DHT22;6091;51.432;6.880;2022-08-19T15:13:20;33.20;35.40
12060;DHT22;6091;51.432;6.880;2022-08-19T15:15:48;33.10;35.40
12060;DHT22;6091;51.432;6.880;2022-08-19T15:18:15;33.10;35.30
12060;DHT22;6091;51.432;6.880;2022-08-19T15:20:42;33.10;36.30
12060;DHT22;6091;51.432;6.880;2022-08-19T15:23:16;33.20;35.30
12060;DHT22;6091;51.432;6.880;2022-08-19T15:30:42;33.10;35.20
12060;DHT22;6091;51.432;6.880;2022-08-19T15:33:11;33.10;35.60
12060;DHT22;6091;51.432;6.880;2022-08-19T15:35:43;33.20;35.90
12060;DHT22;6091;51.432;6.880;2022-08-19T15:38:10;33.20;35.60
12060;DHT22;6091;51.432;6.880;2022-08-19T15:40:40;33.20;35.60
12060;DHT22;6091;51.432;6.880;2022-08-19T15:43:14;33.10;35.20
12060;DHT22;6091;51.432;6.880;2022-08-19T15:45:45;33.10;35.70
12060;DHT22;6091;51.432;6.880;2022-08-19T15:48:15;33.20;34.90
12060;DHT22;6091;51.432;6.880;2022-08-19T15:50:42;33.20;35.60
12060;DHT22;6091;51.432;6.880;2022-08-19T15:53:12;33.20;34.90
12060;DHT22;6091;51.432;6.880;2022-08-19T15:55:44;33.30;35.00
12060;DHT22;6091;51.432;6.880;2022-08-19T15:58:13;33.30;34.80
12060;DHT22;6091;51.432;6.880;2022-08-19T16:01:06;33.20;35.10
12060;DHT22;6091;51.432;6.880;2022-08-19T16:03:55;33.30;35.10
12060;DHT22;6091;51.432;6.880;2022-08-19T16:06:56;33.30;34.60
12060;DHT22;6091;51.432;6.880;2022-08-19T16:09:28;33.30;35.30
12060;DHT22;6091;51.432;6.880;2022-08-19T16:12:02;33.30;34.60
12060;DHT22;6091;51.432;6.880;2022-08-19T16:14:33;33.30;35.20
12060;DHT22;6091;51.432;6.880;2022-08-19T16:17:03;33.30;34.50
12060;DHT22;6091;51.432;6.880;2022-08-19T16:19:31;33.30;34.40
12060;DHT22;6091;51.432;6.880;2022-08-19T16:21:58;33.30;34.50
12060;DHT22;6091;51.432;6.880;2022-08-19T16:24:27;33.20;34.90
12060;DHT22;6091;51.432;6.880;2022-08-19T16:26:55;33.20;34.30
12060;DHT22;6091;51.432;6.880;2022-08-19T16:29:26;33.20;34.40
12060;DHT22;6091;51.432;6.880;2022-08-19T16:32:07;33.20;35.60
12060;DHT22;6091;51.432;6.880;2022-08-19T16:34:38;33.10;34.30
12060;DHT22;6091;51.432;6.880;2022-08-19T16:37:07;33.10;35.00
12060;DHT22;6091;51.432;6.880;2022-08-19T16:39:36;33.10;34.80
12060;DHT22;6091;51.432;6.880;2022-08-19T16:42:06;33.00;34.20
12060;DHT22;6091;51.432;6.880;2022-08-19T16:44:35;33.00;34.70
12060;DHT22;6091;51.432;6.880;2022-08-19T16:47:14;33.00;34.50
12060;DHT22;6091;51.432;6.880;2022-08-19T16:49:43;33.00;34.70
12060;DHT22;6091;51.432;6.880;2022-08-19T16:52:21;33.00;34.30